createdAt,value
2023-03-02T00:00:10.805Z,18.15
2023-03-02T00:02:40.808Z,10.63
2023-03-02T00:05:14.927Z,14.15
2023-03-02T00:10:12.169Z,16.58
2023-03-02T00:12:40.235Z,12.93
2023-03-02T00:15:08.429Z,15.57
2023-03-02T00:17:37.214Z,14.30
2023-03-02T00:20:09.925Z,21.45
2023-03-02T00:22:38.556Z,10.88
2023-03-02T00:25:06.932Z,18.60
2023-03-02T00:27:35.988Z,18.13
2023-03-02T00:30:03.589Z,19.85
2023-03-02T00:32:31.183Z,13.73
2023-03-02T00:34:58.919Z,23.52
2023-03-02T00:37:26.881Z,14.43
2023-03-02T00:39:54.451Z,15.10
2023-03-02T00:42:22.616Z,21.42
2023-03-02T00:44:52.805Z,20.33
2023-03-02T00:47:20.511Z,11.13
2023-03-02T00:49:49.632Z,13.40
2023-03-02T00:52:17.158Z,15.02
2023-03-02T00:54:44.784Z,13.50
2023-03-02T00:57:12.373Z,14.63
2023-03-02T00:59:39.894Z,14.82
2023-03-02T01:02:08.736Z,13.13
2023-03-02T01:04:37.316Z,8.80
2023-03-02T01:07:05.686Z,14.05
2023-03-02T01:09:33.237Z,11.75
2023-03-02T01:12:01.314Z,9.35
2023-03-02T01:14:29.373Z,17.95
2023-03-02T01:16:56.904Z,13.52
2023-03-02T01:19:25.828Z,15.23
2023-03-02T01:21:53.354Z,20.35
2023-03-02T01:24:21.286Z,10.77
2023-03-02T01:26:48.912Z,14.50
2023-03-02T01:29:16.386Z,18.80
2023-03-02T01:31:43.973Z,15.63
2023-03-02T01:34:11.636Z,9.27
2023-03-02T01:36:40.551Z,18.60
2023-03-02T01:39:08.081Z,15.13
2023-03-02T01:41:35.674Z,13.13
2023-03-02T01:44:03.189Z,14.23
2023-03-02T01:46:35.171Z,11.02
2023-03-02T01:49:03.808Z,16.35
2023-03-02T01:51:33.148Z,12.73
2023-03-02T01:54:04.044Z,17.20
2023-03-02T01:56:34.736Z,10.05
2023-03-02T01:59:04.670Z,8.23
2023-03-02T02:01:33.260Z,16.95
2023-03-02T02:04:01.777Z,11.00
2023-03-02T02:06:32.896Z,13.98
2023-03-02T02:09:02.698Z,11.88
2023-03-02T02:11:30.216Z,14.90
2023-03-02T02:13:58.846Z,12.20
2023-03-02T02:16:26.824Z,13.93
2023-03-02T02:18:54.524Z,9.63
2023-03-02T02:21:23.267Z,10.07
2023-03-02T02:23:57.422Z,8.57
2023-03-02T02:26:27.552Z,8.10
2023-03-02T02:28:58.080Z,9.73
2023-03-02T02:31:27.724Z,11.15
2023-03-02T02:33:57.986Z,6.40
2023-03-02T02:36:26.636Z,9.35
2023-03-02T02:38:56.082Z,11.02
2023-03-02T02:41:24.677Z,11.23
2023-03-02T02:43:53.713Z,12.75
2023-03-02T02:46:21.412Z,11.73
2023-03-02T02:48:49.048Z,9.85
2023-03-02T02:51:19.244Z,12.70
2023-03-02T02:53:49.102Z,8.02
2023-03-02T02:56:18.203Z,11.82
2023-03-02T02:58:48.157Z,10.20
2023-03-02T03:01:18.084Z,17.42
2023-03-02T03:03:47.807Z,13.88
2023-03-02T03:06:17.852Z,9.95
2023-03-02T03:08:56.974Z,12.18
2023-03-02T03:11:26.488Z,9.88
2023-03-02T03:13:56.677Z,9.13
2023-03-02T03:16:28.298Z,10.65
2023-03-02T03:18:57.439Z,17.65
2023-03-02T03:21:24.917Z,16.98
2023-03-02T03:23:52.583Z,17.50
2023-03-02T03:26:20.692Z,15.65
2023-03-02T03:28:48.252Z,19.27
2023-03-02T03:31:16.326Z,14.13
2023-03-02T03:33:45.316Z,16.15
2023-03-02T03:36:12.851Z,11.77
2023-03-02T03:38:40.458Z,20.13
2023-03-02T03:41:08.250Z,19.80
2023-03-02T03:43:35.856Z,23.08
2023-03-02T03:46:03.475Z,16.83
2023-03-02T03:48:31.093Z,14.45
2023-03-02T03:51:01.089Z,13.90
2023-03-02T03:53:29.016Z,15.80
2023-03-02T03:55:57.889Z,19.92
2023-03-02T03:58:25.839Z,16.27
2023-03-02T04:00:53.678Z,11.00
2023-03-02T04:03:21.189Z,16.08
2023-03-02T04:05:49.094Z,14.02
2023-03-02T04:08:17.993Z,11.10
2023-03-02T04:10:45.557Z,10.88
2023-03-02T04:13:13.177Z,14.30
2023-03-02T04:15:41.838Z,13.48
2023-03-02T04:18:09.605Z,9.60
2023-03-02T04:20:37.166Z,12.93
2023-03-02T04:23:04.802Z,17.15
2023-03-02T04:25:33.723Z,8.98
2023-03-02T04:28:01.395Z,12.30
2023-03-02T04:30:29.154Z,17.35
2023-03-02T04:32:57.666Z,18.05
2023-03-02T04:35:26.200Z,9.52
2023-03-02T04:37:54.223Z,11.60
2023-03-02T04:40:21.773Z,16.60
2023-03-02T04:42:51.340Z,19.08
2023-03-02T04:45:19.092Z,16.65
2023-03-02T04:47:46.590Z,11.18
2023-03-02T04:50:15.704Z,16.92
2023-03-02T04:52:43.579Z,17.83
2023-03-02T04:55:16.421Z,19.20
2023-03-02T04:57:44.071Z,10.93
2023-03-02T05:00:14.172Z,14.10
2023-03-02T05:02:42.475Z,12.15
2023-03-02T05:05:15.122Z,18.25
2023-03-02T05:07:50.480Z,16.17
2023-03-02T05:10:19.414Z,9.52
2023-03-02T05:12:58.011Z,18.98
2023-03-02T05:15:28.533Z,11.95
2023-03-02T05:17:56.149Z,15.73
2023-03-02T05:20:27.516Z,28.60
2023-03-02T05:22:56.092Z,18.98
2023-03-02T05:25:23.981Z,19.00
2023-03-02T05:27:52.798Z,19.42
2023-03-02T05:30:21.882Z,23.50
2023-03-02T05:32:51.115Z,22.38
2023-03-02T05:35:19.496Z,20.15
2023-03-02T05:37:47.299Z,22.63
2023-03-02T05:40:16.182Z,28.00
2023-03-02T05:42:44.127Z,37.58
2023-03-02T05:45:17.459Z,29.65
2023-03-02T05:47:45.293Z,28.10
2023-03-02T05:50:14.193Z,26.90
2023-03-02T05:52:41.812Z,21.48
2023-03-02T05:55:10.153Z,26.77
2023-03-02T05:57:37.733Z,24.70
2023-03-02T06:00:06.505Z,24.75
2023-03-02T06:02:34.053Z,21.40
2023-03-02T06:05:01.702Z,21.65
2023-03-02T06:07:30.613Z,27.23
2023-03-02T06:09:58.268Z,19.67
2023-03-02T06:12:25.845Z,25.08
2023-03-02T06:14:53.367Z,19.73
2023-03-02T06:17:20.954Z,23.50
2023-03-02T06:19:48.509Z,14.70
2023-03-02T06:22:16.473Z,18.33
2023-03-02T06:24:45.323Z,16.88
2023-03-02T06:27:14.576Z,18.13
2023-03-02T06:29:42.653Z,23.42
2023-03-02T06:32:10.946Z,14.57
2023-03-02T06:34:38.656Z,13.95
2023-03-02T06:37:06.181Z,20.88
2023-03-02T06:39:34.214Z,19.17
2023-03-02T06:42:03.185Z,15.30
2023-03-02T06:44:30.984Z,13.20
2023-03-02T06:46:58.922Z,16.77
2023-03-02T06:49:26.580Z,23.08
2023-03-02T06:51:54.141Z,19.45
2023-03-02T06:54:23.951Z,19.10
2023-03-02T06:56:52.148Z,22.02
2023-03-02T06:59:21.854Z,15.85
2023-03-02T07:01:53.678Z,20.17
2023-03-02T07:04:21.395Z,18.70
2023-03-02T07:06:48.976Z,17.00
2023-03-02T07:09:19.389Z,9.40
2023-03-02T07:11:46.937Z,18.20
2023-03-02T07:14:14.730Z,21.70
2023-03-02T07:16:43.986Z,13.88
2023-03-02T07:19:13.045Z,11.80
2023-03-02T07:21:40.811Z,10.30
2023-03-02T07:24:08.809Z,11.75
2023-03-02T07:26:37.683Z,12.13
2023-03-02T07:29:05.242Z,10.35
2023-03-02T07:31:33.332Z,14.88
2023-03-02T07:34:03.389Z,8.65
2023-03-02T07:36:32.047Z,10.07
2023-03-02T07:38:59.721Z,17.42
2023-03-02T07:41:27.253Z,15.20
2023-03-02T07:43:57.665Z,12.10
2023-03-02T07:46:26.948Z,10.93
2023-03-02T07:49:00.121Z,12.73
2023-03-02T07:51:38.963Z,11.35
2023-03-02T07:54:10.024Z,13.40
2023-03-02T07:56:37.813Z,13.20
2023-03-02T07:59:05.918Z,6.47
2023-03-02T08:01:34.055Z,13.15
2023-03-02T08:04:01.906Z,15.48
2023-03-02T08:06:29.590Z,18.33
2023-03-02T08:09:00.383Z,10.23
2023-03-02T08:11:31.387Z,9.73
2023-03-02T08:14:04.310Z,10.40
2023-03-02T08:16:32.706Z,9.98
2023-03-02T08:19:00.651Z,8.57
2023-03-02T08:21:29.340Z,8.38
2023-03-02T08:23:59.319Z,9.02
2023-03-02T08:26:27.501Z,10.98
2023-03-02T08:28:58.615Z,8.77
2023-03-02T08:31:26.211Z,7.97
2023-03-02T08:33:53.830Z,11.02
2023-03-02T08:36:22.443Z,13.30
2023-03-02T08:38:50.358Z,7.00
2023-03-02T08:41:20.334Z,16.17
2023-03-02T08:43:47.988Z,9.02
2023-03-02T08:46:16.868Z,10.32
2023-03-02T08:48:44.833Z,9.63
2023-03-02T08:51:15.310Z,8.07
2023-03-02T08:53:44.346Z,13.25
2023-03-02T08:56:22.301Z,11.20
2023-03-02T08:58:50.189Z,8.00
2023-03-02T09:01:19.019Z,11.13
2023-03-02T09:03:47.264Z,8.80
2023-03-02T09:06:15.257Z,10.18
2023-03-02T09:08:42.874Z,9.68
2023-03-02T09:11:10.782Z,10.98
2023-03-02T09:13:39.887Z,11.27
2023-03-02T09:16:08.524Z,11.05
2023-03-02T09:21:28.559Z,7.93
2023-03-02T09:23:58.366Z,7.22
2023-03-02T09:26:26.050Z,11.90
2023-03-02T09:28:55.232Z,11.02
2023-03-02T09:31:23.022Z,9.75
2023-03-02T09:33:50.612Z,9.35
2023-03-02T09:36:20.901Z,7.72
2023-03-02T09:38:48.588Z,7.45
2023-03-02T09:41:29.219Z,8.07
2023-03-02T09:44:03.487Z,13.38
2023-03-02T09:46:36.497Z,10.35
2023-03-02T09:49:12.170Z,15.10
2023-03-02T09:51:46.580Z,10.45
2023-03-02T09:54:20.666Z,13.57
2023-03-02T09:56:49.338Z,12.60
2023-03-02T09:59:22.331Z,12.13
2023-03-02T10:01:52.369Z,12.23
2023-03-02T10:04:23.057Z,11.25
2023-03-02T10:09:46.188Z,9.23
2023-03-02T10:12:22.188Z,11.95
2023-03-02T10:14:55.791Z,6.60
2023-03-02T10:17:28.435Z,10.75
2023-03-02T10:19:58.190Z,12.13
2023-03-02T10:22:28.880Z,8.82
2023-03-02T10:27:53.463Z,9.02
2023-03-02T10:30:25.660Z,8.00
2023-03-02T10:32:53.639Z,12.48
2023-03-02T10:35:23.206Z,10.93
2023-03-02T10:37:52.575Z,7.38
2023-03-02T10:40:29.224Z,7.82
2023-03-02T10:42:57.688Z,8.23
2023-03-02T10:45:34.675Z,7.53
2023-03-02T10:48:04.691Z,7.00
2023-03-02T10:50:32.473Z,9.27
2023-03-02T10:53:02.543Z,10.15
2023-03-02T10:55:34.547Z,8.75
2023-03-02T10:58:06.852Z,11.05
2023-03-02T11:00:38.858Z,10.00
2023-03-02T11:03:07.929Z,7.18
2023-03-02T11:05:36.425Z,5.95
2023-03-02T11:08:05.955Z,10.80
2023-03-02T11:10:34.461Z,7.05
2023-03-02T11:13:02.562Z,6.55
2023-03-02T11:15:38.035Z,8.13
2023-03-02T11:18:11.142Z,8.52
2023-03-02T11:20:39.766Z,8.95
2023-03-02T11:23:14.878Z,8.15
2023-03-02T11:25:51.966Z,6.38
2023-03-02T11:28:27.717Z,8.32
2023-03-02T11:31:00.571Z,9.38
2023-03-02T11:33:34.695Z,9.77
2023-03-02T11:38:33.765Z,11.10
2023-03-02T11:41:03.169Z,9.32
2023-03-02T11:43:32.543Z,10.43
2023-03-02T11:46:01.775Z,6.90
2023-03-02T11:48:32.989Z,10.48
2023-03-02T11:51:01.583Z,7.35
2023-03-02T11:53:31.750Z,8.30
2023-03-02T11:56:04.691Z,6.93
2023-03-02T11:58:32.812Z,6.63
2023-03-02T12:01:01.089Z,8.93
2023-03-02T12:03:40.938Z,5.72
2023-03-02T12:06:09.487Z,9.70
2023-03-02T12:08:39.129Z,12.60
2023-03-02T12:11:07.987Z,5.93
2023-03-02T12:13:36.592Z,7.00
2023-03-02T12:16:04.813Z,8.05
2023-03-02T12:18:49.630Z,8.50
2023-03-02T12:21:18.410Z,6.00
2023-03-02T12:24:00.310Z,5.07
2023-03-02T12:26:29.840Z,7.03
2023-03-02T12:29:01.054Z,4.80
2023-03-02T12:31:40.374Z,9.18
2023-03-02T12:34:21.357Z,6.40
2023-03-02T12:36:50.228Z,10.50
2023-03-02T12:39:23.219Z,7.38
2023-03-02T12:41:59.019Z,10.60
2023-03-02T12:44:33.272Z,6.30
2023-03-02T12:47:03.039Z,10.68
2023-03-02T12:49:43.679Z,10.25
2023-03-02T12:52:23.931Z,10.43
2023-03-02T12:55:00.521Z,8.85
2023-03-02T12:57:28.687Z,8.82
2023-03-02T12:59:58.116Z,12.93
2023-03-02T13:02:28.598Z,11.23
2023-03-02T13:04:58.830Z,9.18
2023-03-02T13:07:28.946Z,9.73
2023-03-02T13:09:58.357Z,12.15
2023-03-02T13:12:29.474Z,6.75
2023-03-02T13:14:57.856Z,10.38
2023-03-02T13:17:26.899Z,11.20
2023-03-02T13:19:55.122Z,7.53
2023-03-02T13:22:24.299Z,4.88
2023-03-02T13:24:56.137Z,9.20
2023-03-02T13:27:24.950Z,5.70
2023-03-02T13:29:53.314Z,7.40
2023-03-02T13:32:21.982Z,5.95
2023-03-02T13:34:50.976Z,4.10
2023-03-02T13:37:26.880Z,9.05
2023-03-02T13:39:57.957Z,7.38
2023-03-02T13:42:30.551Z,9.10
2023-03-02T13:44:58.232Z,8.20
2023-03-02T13:47:26.039Z,5.65
2023-03-02T13:52:46.281Z,9.45
2023-03-02T13:55:15.005Z,12.13
2023-03-02T13:57:42.974Z,3.10
2023-03-02T14:00:12.817Z,3.88
2023-03-02T14:02:42.238Z,5.78
2023-03-02T14:05:17.328Z,5.15
2023-03-02T14:07:46.944Z,6.45
2023-03-02T14:10:15.755Z,5.30
2023-03-02T14:12:46.411Z,11.95
2023-03-02T14:15:15.677Z,10.00
2023-03-02T14:17:43.596Z,11.40
2023-03-02T14:20:13.167Z,10.25
2023-03-02T14:22:41.267Z,11.57
2023-03-02T14:25:11.111Z,12.65
2023-03-02T14:30:31.155Z,7.55
2023-03-02T14:32:58.668Z,3.35
2023-03-02T14:35:26.576Z,5.32
2023-03-02T14:37:56.852Z,8.40
2023-03-02T14:40:26.905Z,8.05
2023-03-02T14:42:54.617Z,9.85
2023-03-02T14:48:38.542Z,6.55
2023-03-02T14:51:30.852Z,11.05
2023-03-02T14:54:00.410Z,7.95
2023-03-02T14:56:30.937Z,8.02
2023-03-02T14:58:59.242Z,8.48
2023-03-02T15:01:27.508Z,11.32
2023-03-02T15:03:55.230Z,9.27
2023-03-02T15:06:25.976Z,10.07
2023-03-02T15:08:57.237Z,11.43
2023-03-02T15:11:24.829Z,11.48
2023-03-02T15:13:54.276Z,15.32
2023-03-02T15:16:21.937Z,11.40
2023-03-02T15:18:49.670Z,12.60
2023-03-02T15:21:19.292Z,9.95
2023-03-02T15:23:47.184Z,11.18
2023-03-02T15:26:19.041Z,6.55
2023-03-02T15:28:46.616Z,12.57
2023-03-02T15:31:16.873Z,12.23
2023-03-02T15:33:45.774Z,13.53
2023-03-02T15:36:13.668Z,16.60
2023-03-02T15:38:41.238Z,16.45
2023-03-02T15:41:09.576Z,12.77
2023-03-02T15:43:41.276Z,13.75
2023-03-02T15:46:10.993Z,15.95
2023-03-02T15:48:42.639Z,16.13
2023-03-02T15:51:11.175Z,17.73
2023-03-02T15:53:39.552Z,13.02
2023-03-02T15:56:07.623Z,14.95
2023-03-02T15:58:35.515Z,10.90
2023-03-02T16:01:07.448Z,15.48
2023-03-02T16:03:35.116Z,12.20
2023-03-02T16:06:04.096Z,8.13
2023-03-02T16:08:31.936Z,11.45
2023-03-02T16:11:00.278Z,9.10
2023-03-02T16:13:28.357Z,7.22
2023-03-02T16:15:55.911Z,7.40
2023-03-02T16:18:24.134Z,8.07
2023-03-02T16:20:51.908Z,9.82
2023-03-02T16:23:22.089Z,8.70
2023-03-02T16:25:50.248Z,8.48
2023-03-02T16:28:19.408Z,8.10
2023-03-02T16:30:47.486Z,10.27
2023-03-02T16:33:16.062Z,8.65
2023-03-02T16:35:43.649Z,7.03
2023-03-02T16:38:11.323Z,6.65
2023-03-02T16:40:41.092Z,10.32
2023-03-02T16:43:11.454Z,9.38
2023-03-02T16:45:40.921Z,11.00
2023-03-02T16:48:08.595Z,9.55
2023-03-02T16:50:36.151Z,7.03
2023-03-02T16:53:03.890Z,9.98
2023-03-02T16:55:31.528Z,7.10
2023-03-02T16:58:00.693Z,7.85
2023-03-02T17:00:28.438Z,12.25
2023-03-02T17:03:01.049Z,9.00
2023-03-02T17:05:29.229Z,9.02
2023-03-02T17:07:58.912Z,14.90
2023-03-02T17:10:29.195Z,9.20
2023-03-02T17:13:10.999Z,13.35
2023-03-02T17:15:43.710Z,7.93
2023-03-02T17:18:11.579Z,9.75
2023-03-02T17:20:43.175Z,11.18
2023-03-02T17:23:14.158Z,14.80
2023-03-02T17:25:43.535Z,12.57
2023-03-02T17:28:16.247Z,9.60
2023-03-02T17:30:47.742Z,12.00
2023-03-02T17:33:19.945Z,7.47
2023-03-02T17:35:52.158Z,12.40
2023-03-02T17:38:20.980Z,11.60
2023-03-02T17:40:48.628Z,9.45
2023-03-02T17:43:21.268Z,13.80
2023-03-02T17:45:52.559Z,12.40
2023-03-02T17:48:21.306Z,12.18
2023-03-02T17:50:49.302Z,12.30
2023-03-02T17:53:16.938Z,14.60
2023-03-02T17:55:47.445Z,17.13
2023-03-02T17:58:20.840Z,13.15
2023-03-02T18:00:48.692Z,23.45
2023-03-02T18:03:20.150Z,12.73
2023-03-02T18:05:48.280Z,9.63
2023-03-02T18:08:18.627Z,15.50
2023-03-02T18:10:46.372Z,10.48
2023-03-02T18:13:22.608Z,13.82
2023-03-02T18:15:50.350Z,10.00
2023-03-02T18:18:19.414Z,17.27
2023-03-02T18:20:47.675Z,13.18
2023-03-02T18:23:17.547Z,12.63
2023-03-02T18:25:45.441Z,11.52
2023-03-02T18:28:20.295Z,12.10
2023-03-02T18:30:49.617Z,17.08
2023-03-02T18:33:17.391Z,12.18
2023-03-02T18:35:46.541Z,12.40
2023-03-02T18:38:14.275Z,13.70
2023-03-02T18:40:41.803Z,16.48
2023-03-02T18:43:12.043Z,16.23
2023-03-02T18:45:40.252Z,23.23
2023-03-02T18:48:07.909Z,17.17
2023-03-02T18:53:28.763Z,16.10
2023-03-02T18:56:01.772Z,17.13
2023-03-02T18:58:34.479Z,21.13
2023-03-02T19:01:02.604Z,20.10
2023-03-02T19:03:36.548Z,21.65
2023-03-02T19:06:09.286Z,20.00
2023-03-02T19:08:47.992Z,18.13
2023-03-02T19:11:15.807Z,19.25
2023-03-02T19:13:46.349Z,27.35
2023-03-02T19:16:19.974Z,22.95
2023-03-02T19:18:48.766Z,26.63
2023-03-02T19:21:18.255Z,20.05
2023-03-02T19:23:47.610Z,24.33
2023-03-02T19:26:15.433Z,19.90
2023-03-02T19:28:43.015Z,17.90
2023-03-02T19:31:11.581Z,26.00
2023-03-02T19:33:40.040Z,18.98
2023-03-02T19:36:13.440Z,22.77
2023-03-02T19:38:46.639Z,19.98
2023-03-02T19:41:19.184Z,18.70
2023-03-02T19:43:49.167Z,25.35
2023-03-02T19:46:17.599Z,25.02
2023-03-02T19:48:45.457Z,20.67
2023-03-02T19:51:16.777Z,25.50
2023-03-02T19:53:46.007Z,25.50
2023-03-02T19:56:16.486Z,22.13
2023-03-02T19:58:49.660Z,36.03
2023-03-02T20:01:42.052Z,19.27
2023-03-02T20:04:10.064Z,25.52
2023-03-02T20:06:38.115Z,23.52
2023-03-02T20:09:08.863Z,21.60
2023-03-02T20:11:38.524Z,18.65
2023-03-02T20:14:06.308Z,23.42
2023-03-02T20:16:42.483Z,22.38
2023-03-02T20:19:11.663Z,15.55
2023-03-02T20:21:40.482Z,21.90
2023-03-02T20:24:08.693Z,17.58
2023-03-02T20:26:36.466Z,19.75
2023-03-02T20:32:05.226Z,24.95
2023-03-02T20:34:32.882Z,20.95
2023-03-02T20:37:02.981Z,24.17
2023-03-02T20:42:24.568Z,26.00
2023-03-02T20:44:53.526Z,22.20
2023-03-02T20:47:23.432Z,23.08
2023-03-02T20:49:51.128Z,25.77
2023-03-02T20:52:21.670Z,29.60
2023-03-02T20:54:49.429Z,26.80
2023-03-02T20:57:18.142Z,25.33
2023-03-02T20:59:46.373Z,25.92
2023-03-02T21:02:15.939Z,27.70
2023-03-02T21:04:46.037Z,31.40
2023-03-02T21:07:24.357Z,33.63
2023-03-02T21:09:52.048Z,36.90
2023-03-02T21:12:23.457Z,29.88
2023-03-02T21:14:51.194Z,30.98
2023-03-02T21:17:24.466Z,33.67
2023-03-02T21:19:52.274Z,35.13
2023-03-02T21:22:21.719Z,35.65
2023-03-02T21:24:49.370Z,33.08
2023-03-02T21:27:20.049Z,29.38
2023-03-02T21:29:47.619Z,30.08
2023-03-02T21:32:18.266Z,27.00
2023-03-02T21:34:47.298Z,22.48
2023-03-02T21:37:17.643Z,25.80
2023-03-02T21:39:45.490Z,21.92
2023-03-02T21:42:13.038Z,24.65
2023-03-02T21:44:40.611Z,20.13
2023-03-02T21:47:09.248Z,21.40
2023-03-02T21:49:36.846Z,19.13
2023-03-02T21:52:07.819Z,20.08
2023-03-02T21:54:36.525Z,19.42
2023-03-02T21:57:04.312Z,23.98
2023-03-02T21:59:32.101Z,21.75
2023-03-02T22:02:01.147Z,20.52
2023-03-02T22:04:28.800Z,28.27
2023-03-02T22:06:56.470Z,30.85
2023-03-02T22:09:25.415Z,22.33
2023-03-02T22:11:53.102Z,24.67
2023-03-02T22:14:20.924Z,19.98
2023-03-02T22:16:48.827Z,21.63
2023-03-02T22:19:23.628Z,16.55
2023-03-02T22:21:55.078Z,19.33
2023-03-02T22:24:26.151Z,15.48
2023-03-02T22:27:00.936Z,18.80
2023-03-02T22:29:30.811Z,18.20
2023-03-02T22:32:01.862Z,20.00
2023-03-02T22:34:33.111Z,20.98
2023-03-02T22:37:02.578Z,20.52
2023-03-02T22:39:31.891Z,18.23
2023-03-02T22:42:06.474Z,14.68
2023-03-02T22:44:35.303Z,13.93
2023-03-02T22:47:03.172Z,20.63
2023-03-02T22:49:31.045Z,17.92
2023-03-02T22:51:59.827Z,17.15
2023-03-02T22:54:29.365Z,19.50
2023-03-02T22:56:59.430Z,17.13
2023-03-02T22:59:35.100Z,17.90
2023-03-02T23:02:03.659Z,20.38
2023-03-02T23:04:34.683Z,19.58
2023-03-02T23:07:15.604Z,23.75
2023-03-02T23:09:45.215Z,19.17
2023-03-02T23:12:16.325Z,21.77
2023-03-02T23:14:50.591Z,19.33
2023-03-02T23:17:20.084Z,18.42
2023-03-02T23:19:47.779Z,17.42
2023-03-02T23:22:15.338Z,19.92
2023-03-02T23:24:48.482Z,23.00
2023-03-02T23:27:16.045Z,28.90
2023-03-02T23:29:51.731Z,24.27
2023-03-02T23:32:19.795Z,23.85
2023-03-02T23:34:52.898Z,22.30
2023-03-02T23:37:20.602Z,24.17
2023-03-02T23:39:48.176Z,24.67
2023-03-02T23:42:18.235Z,19.10
2023-03-02T23:44:47.112Z,27.58
2023-03-02T23:47:15.866Z,21.65
2023-03-02T23:49:44.916Z,20.67
2023-03-02T23:52:12.482Z,20.42
2023-03-02T23:54:43.724Z,20.60
2023-03-02T23:57:11.345Z,19.73
2023-03-02T23:59:38.904Z,20.52
